createdAt,value
2023-05-03T00:01:44.339Z,0.40
2023-05-03T00:04:11.717Z,0.40
2023-05-03T00:06:39.142Z,0.50
2023-05-03T00:09:06.541Z,0.40
2023-05-03T00:11:34.818Z,0.30
2023-05-03T00:14:02.183Z,0.30
2023-05-03T00:16:29.560Z,0.40
2023-05-03T00:18:56.946Z,0.30
2023-05-03T00:21:24.280Z,0.70
2023-05-03T00:23:51.654Z,0.80
2023-05-03T00:26:19.170Z,0.60
2023-05-03T00:28:46.506Z,0.30
2023-05-03T00:31:13.891Z,0.30
2023-05-03T00:33:41.160Z,0.30
2023-05-03T00:36:11.951Z,0.40
2023-05-03T00:38:39.546Z,0.40
2023-05-03T00:41:07.422Z,0.30
2023-05-03T00:43:35.502Z,0.30
2023-05-03T00:46:15.366Z,0.30
2023-05-03T00:48:44.812Z,0.40
2023-05-03T00:51:12.224Z,0.30
2023-05-03T00:53:39.459Z,0.30
2023-05-03T00:56:07.117Z,0.30
2023-05-03T00:58:36.415Z,0.30
2023-05-03T01:01:03.828Z,0.30
2023-05-03T01:03:32.404Z,0.30
2023-05-03T01:06:09.630Z,0.20
2023-05-03T01:08:38.789Z,0.40
2023-05-03T01:11:08.273Z,0.40
2023-05-03T01:13:44.136Z,0.30
2023-05-03T01:16:30.419Z,0.30
2023-05-03T01:19:01.598Z,0.40
2023-05-03T01:21:29.412Z,0.30
2023-05-03T01:23:56.821Z,0.33
2023-05-03T01:26:24.868Z,0.40
2023-05-03T01:28:52.292Z,0.30
2023-05-03T01:31:36.234Z,0.30
2023-05-03T01:34:23.826Z,0.40
2023-05-03T01:36:51.187Z,0.30
2023-05-03T01:39:28.169Z,0.40
2023-05-03T01:41:55.515Z,0.30
2023-05-03T01:44:22.808Z,0.30
2023-05-03T01:46:50.217Z,0.30
2023-05-03T01:49:17.590Z,0.30
2023-05-03T01:51:45.057Z,0.30
2023-05-03T01:54:12.617Z,0.30
2023-05-03T01:56:40.062Z,0.30
2023-05-03T01:59:07.366Z,0.33
2023-05-03T02:01:34.797Z,0.30
2023-05-03T02:04:02.378Z,0.30
2023-05-03T02:06:29.754Z,0.30
2023-05-03T02:08:57.307Z,0.30
2023-05-03T02:11:25.036Z,0.30
2023-05-03T02:13:52.663Z,0.30
2023-05-03T02:16:20.053Z,0.30
2023-05-03T02:18:47.713Z,0.33
2023-05-03T02:21:15.122Z,0.80
2023-05-03T02:23:42.411Z,0.80
2023-05-03T02:26:09.757Z,0.70
2023-05-03T02:28:37.115Z,0.40
2023-05-03T02:31:06.443Z,0.50
2023-05-03T02:33:33.989Z,0.50
2023-05-03T02:36:01.450Z,0.40
2023-05-03T02:38:28.807Z,0.50
2023-05-03T02:40:56.270Z,0.50
2023-05-03T02:43:23.815Z,0.40
2023-05-03T02:45:51.166Z,0.30
2023-05-03T02:48:18.686Z,0.30
2023-05-03T02:50:46.136Z,0.40
2023-05-03T02:53:13.486Z,0.30
2023-05-03T02:55:40.985Z,0.20
2023-05-03T02:58:08.354Z,0.40
2023-05-03T03:00:35.859Z,0.30
2023-05-03T03:03:03.321Z,0.40
2023-05-03T03:05:30.997Z,0.30
2023-05-03T03:07:58.265Z,0.30
2023-05-03T03:10:25.565Z,0.40
2023-05-03T03:12:52.867Z,0.30
2023-05-03T03:15:20.303Z,0.30
2023-05-03T03:17:47.704Z,0.30
2023-05-03T03:20:16.106Z,0.30
2023-05-03T03:22:45.592Z,0.40
2023-05-03T03:25:13.019Z,0.30
2023-05-03T03:27:40.520Z,0.30
2023-05-03T03:30:08.458Z,0.27
2023-05-03T03:32:36.054Z,0.30
2023-05-03T03:35:03.358Z,0.40
2023-05-03T03:37:30.742Z,0.30
2023-05-03T03:39:58.048Z,0.30
2023-05-03T03:42:25.966Z,0.40
2023-05-03T03:44:53.349Z,0.30
2023-05-03T03:47:20.858Z,0.30
2023-05-03T03:49:48.160Z,0.40
2023-05-03T03:52:15.608Z,0.30
2023-05-03T03:54:42.879Z,0.50
2023-05-03T03:57:10.331Z,0.60
2023-05-03T03:59:37.599Z,0.40
2023-05-03T04:02:05.012Z,0.30
2023-05-03T04:04:32.442Z,0.30
2023-05-03T04:06:59.773Z,0.30
2023-05-03T04:09:27.104Z,0.30
2023-05-03T04:11:54.681Z,0.30
2023-05-03T04:14:21.970Z,0.40
2023-05-03T04:16:49.446Z,0.30
2023-05-03T04:19:18.651Z,0.30
2023-05-03T04:21:45.972Z,0.30
2023-05-03T04:24:15.911Z,0.30
2023-05-03T04:26:43.224Z,0.30
2023-05-03T04:29:11.776Z,0.40
2023-05-03T04:31:39.933Z,0.33
2023-05-03T04:34:07.859Z,0.40
2023-05-03T04:36:35.461Z,0.40
2023-05-03T04:39:02.782Z,0.30
2023-05-03T04:41:30.059Z,0.30
2023-05-03T04:43:57.430Z,0.20
2023-05-03T04:46:24.937Z,0.40
2023-05-03T04:48:52.421Z,0.40
2023-05-03T04:51:19.767Z,0.30
2023-05-03T04:53:47.122Z,0.30
2023-05-03T04:56:14.386Z,0.40
2023-05-03T04:58:41.715Z,0.30
2023-05-03T05:01:10.948Z,0.33
2023-05-03T05:03:38.445Z,0.40
2023-05-03T05:06:08.292Z,0.40
2023-05-03T05:08:35.638Z,0.40
2023-05-03T05:11:04.650Z,0.30
2023-05-03T05:13:32.306Z,0.40
2023-05-03T05:15:59.675Z,0.30
2023-05-03T05:18:27.029Z,0.30
2023-05-03T05:20:54.459Z,0.40
2023-05-03T05:23:22.028Z,0.40
2023-05-03T05:25:49.496Z,0.30
2023-05-03T05:28:16.955Z,0.30
2023-05-03T05:30:44.354Z,0.30
2023-05-03T05:33:11.730Z,0.30
2023-05-03T05:35:39.116Z,0.30
2023-05-03T05:38:07.614Z,0.40
2023-05-03T05:40:35.011Z,0.40
2023-05-03T05:43:02.305Z,0.30
2023-05-03T05:45:29.645Z,0.40
2023-05-03T05:47:56.988Z,0.37
2023-05-03T05:50:24.550Z,0.30
2023-05-03T05:52:53.214Z,0.40
2023-05-03T05:55:21.321Z,0.30
2023-05-03T05:57:48.690Z,0.40
2023-05-03T06:00:17.406Z,0.40
2023-05-03T06:02:44.909Z,0.40
2023-05-03T06:05:12.396Z,0.40
2023-05-03T06:07:39.741Z,0.37
2023-05-03T06:10:08.009Z,0.30
2023-05-03T06:12:35.301Z,0.30
2023-05-03T06:15:03.428Z,0.40
2023-05-03T06:17:31.226Z,0.30
2023-05-03T06:19:58.764Z,0.30
2023-05-03T06:22:26.587Z,0.40
2023-05-03T06:24:54.026Z,0.40
2023-05-03T06:27:21.333Z,0.33
2023-05-03T06:29:50.184Z,0.30
2023-05-03T06:32:17.506Z,0.33
2023-05-03T06:34:44.927Z,0.40
2023-05-03T06:37:12.503Z,0.40
2023-05-03T06:39:39.844Z,0.40
2023-05-03T06:42:08.060Z,0.40
2023-05-03T06:44:35.376Z,0.30
2023-05-03T06:47:02.797Z,0.37
2023-05-03T06:49:30.165Z,0.30
2023-05-03T06:51:57.559Z,0.30
2023-05-03T06:54:24.839Z,0.40
2023-05-03T06:56:52.222Z,0.30
2023-05-03T06:59:19.543Z,0.30
2023-05-03T07:01:47.339Z,0.23
2023-05-03T07:04:14.783Z,0.30
2023-05-03T07:06:55.493Z,0.40
2023-05-03T07:09:39.242Z,0.30
2023-05-03T07:12:10.698Z,0.30
2023-05-03T07:14:39.547Z,0.30
2023-05-03T07:17:07.109Z,0.30
2023-05-03T07:19:34.555Z,0.20
2023-05-03T07:22:03.451Z,0.40
2023-05-03T07:24:30.781Z,0.20
2023-05-03T07:26:58.522Z,0.40
2023-05-03T07:29:27.264Z,0.30
2023-05-03T07:31:54.651Z,0.30
2023-05-03T07:34:22.156Z,0.30
2023-05-03T07:36:49.536Z,0.30
2023-05-03T07:39:17.518Z,0.40
2023-05-03T07:41:44.905Z,0.40
2023-05-03T07:44:12.219Z,0.20
2023-05-03T07:46:39.566Z,0.40
2023-05-03T07:49:06.931Z,0.40
2023-05-03T07:51:37.628Z,0.40
2023-05-03T07:54:04.937Z,0.30
2023-05-03T07:56:32.414Z,0.40
2023-05-03T07:59:09.231Z,0.40
2023-05-03T08:01:37.901Z,0.20
2023-05-03T08:04:05.448Z,0.30
2023-05-03T08:06:35.956Z,0.30
2023-05-03T08:09:04.887Z,0.30
2023-05-03T08:11:32.394Z,0.40
2023-05-03T08:13:59.679Z,0.30
2023-05-03T08:16:27.251Z,0.30
2023-05-03T08:18:54.745Z,0.23
2023-05-03T08:21:24.964Z,0.30
2023-05-03T08:23:52.399Z,0.20
2023-05-03T08:26:19.690Z,0.30
2023-05-03T08:28:46.973Z,0.30
2023-05-03T08:31:14.498Z,0.30
2023-05-03T08:33:42.012Z,0.30
2023-05-03T08:36:09.427Z,0.30
2023-05-03T08:38:42.169Z,0.30
2023-05-03T08:41:30.227Z,0.30
2023-05-03T08:43:58.407Z,0.30
2023-05-03T08:46:26.132Z,0.30
2023-05-03T08:48:53.757Z,0.30
2023-05-03T08:51:21.886Z,0.30
2023-05-03T08:53:49.599Z,0.30
2023-05-03T08:56:26.284Z,0.20
2023-05-03T08:58:53.836Z,0.30
2023-05-03T09:01:21.251Z,0.30
2023-05-03T09:03:52.114Z,0.30
2023-05-03T09:06:26.034Z,0.30
2023-05-03T09:08:53.769Z,0.20
2023-05-03T09:11:24.691Z,0.20
2023-05-03T09:13:53.219Z,0.20
2023-05-03T09:16:24.354Z,0.30
2023-05-03T09:18:58.464Z,0.20
2023-05-03T09:21:25.816Z,0.30
2023-05-03T09:23:53.177Z,0.30
2023-05-03T09:26:35.286Z,0.40
2023-05-03T09:29:05.099Z,0.33
2023-05-03T09:31:33.082Z,0.30
2023-05-03T09:34:00.923Z,0.20
2023-05-03T09:36:28.423Z,0.30
2023-05-03T09:38:56.188Z,0.30
2023-05-03T09:41:30.164Z,0.20
2023-05-03T09:44:02.722Z,0.23
2023-05-03T09:46:33.577Z,0.20
2023-05-03T09:49:01.487Z,0.30
2023-05-03T09:51:28.850Z,0.20
2023-05-03T09:53:56.940Z,0.30
2023-05-03T09:56:26.657Z,0.20
2023-05-03T09:58:54.539Z,0.30
2023-05-03T10:01:24.737Z,0.30
2023-05-03T10:03:53.087Z,0.20
2023-05-03T10:06:23.864Z,0.30
2023-05-03T10:08:55.137Z,0.20
2023-05-03T10:11:24.050Z,0.20
2023-05-03T10:13:51.965Z,0.20
2023-05-03T10:16:22.396Z,0.20
2023-05-03T10:18:55.484Z,0.20
2023-05-03T10:21:26.243Z,0.20
2023-05-03T10:24:13.145Z,0.20
2023-05-03T10:26:47.708Z,0.20
2023-05-03T10:29:37.673Z,0.30
2023-05-03T10:32:23.799Z,0.20
2023-05-03T10:34:52.225Z,0.20
2023-05-03T10:37:19.582Z,0.30
2023-05-03T10:39:46.897Z,0.30
2023-05-03T10:42:14.291Z,0.30
2023-05-03T10:44:54.326Z,0.20
2023-05-03T10:47:23.581Z,0.20
2023-05-03T10:50:09.825Z,0.30
2023-05-03T10:52:37.101Z,0.20
2023-05-03T10:55:10.198Z,0.20
2023-05-03T10:57:40.357Z,0.30
2023-05-03T11:00:16.504Z,0.27
2023-05-03T11:02:44.955Z,0.20
2023-05-03T11:05:12.444Z,0.30
2023-05-03T11:07:39.810Z,0.20
2023-05-03T11:10:19.490Z,0.20
2023-05-03T11:12:46.782Z,0.20
2023-05-03T11:15:14.101Z,0.20
2023-05-03T11:17:41.446Z,0.20
2023-05-03T11:20:09.000Z,0.20
2023-05-03T11:22:36.734Z,0.20
2023-05-03T11:25:04.325Z,0.20
2023-05-03T11:27:31.863Z,0.20
2023-05-03T11:29:59.509Z,0.30
2023-05-03T11:32:27.871Z,0.20
2023-05-03T11:34:55.302Z,0.20
2023-05-03T11:37:22.613Z,0.20
2023-05-03T11:39:50.161Z,0.28
2023-05-03T11:42:17.876Z,0.20
2023-05-03T11:44:45.201Z,0.30
2023-05-03T11:47:12.556Z,0.20
2023-05-03T11:49:39.962Z,0.20
2023-05-03T11:52:07.358Z,0.20
2023-05-03T11:54:34.664Z,0.20
2023-05-03T11:57:11.983Z,0.20
2023-05-03T11:59:39.866Z,0.20
2023-05-03T12:02:11.089Z,0.20
2023-05-03T12:04:42.947Z,0.30
2023-05-03T12:07:12.813Z,0.25
2023-05-03T12:09:43.686Z,0.30
2023-05-03T12:12:20.508Z,0.30
2023-05-03T12:15:08.413Z,0.30
2023-05-03T12:17:38.316Z,0.20
2023-05-03T12:22:51.504Z,0.20
2023-05-03T12:25:20.845Z,0.30
2023-05-03T12:27:55.904Z,0.30
2023-05-03T12:30:34.289Z,0.20
2023-05-03T12:33:04.385Z,0.30
2023-05-03T12:35:34.097Z,0.30
2023-05-03T12:38:08.358Z,0.20
2023-05-03T12:40:37.217Z,0.25
2023-05-03T12:43:04.844Z,0.30
2023-05-03T12:45:34.611Z,0.30
2023-05-03T12:48:03.111Z,0.30
2023-05-03T12:50:31.789Z,0.20
2023-05-03T12:53:02.623Z,0.22
2023-05-03T12:55:35.664Z,0.20
2023-05-03T12:58:36.746Z,0.30
2023-05-03T13:03:32.385Z,0.30
2023-05-03T13:06:01.414Z,0.20
2023-05-03T13:08:35.353Z,0.20
2023-05-03T13:11:03.061Z,0.20
2023-05-03T13:13:30.458Z,0.28
2023-05-03T13:15:57.863Z,0.20
2023-05-03T13:18:25.283Z,0.30
2023-05-03T13:20:52.764Z,0.20
2023-05-03T13:23:20.103Z,0.20
2023-05-03T13:25:47.516Z,0.30
2023-05-03T13:28:14.818Z,0.20
2023-05-03T13:30:42.173Z,0.20
2023-05-03T13:33:09.604Z,0.20
2023-05-03T13:35:36.949Z,0.30
2023-05-03T13:38:04.267Z,0.30
2023-05-03T13:40:31.611Z,0.30
2023-05-03T13:42:59.128Z,0.20
2023-05-03T13:45:26.502Z,0.30
2023-05-03T13:48:13.555Z,0.20
2023-05-03T13:50:41.100Z,0.30
2023-05-03T13:53:08.516Z,0.20
2023-05-03T13:55:36.057Z,0.20
2023-05-03T13:58:03.466Z,0.28
2023-05-03T14:00:32.350Z,0.20
2023-05-03T14:03:00.170Z,0.20
2023-05-03T14:05:27.578Z,0.20
2023-05-03T14:07:54.979Z,0.20
2023-05-03T14:10:22.832Z,0.30
2023-05-03T14:12:50.653Z,0.30
2023-05-03T14:15:19.032Z,0.30
2023-05-03T14:17:49.637Z,0.20
2023-05-03T14:20:20.183Z,0.20
2023-05-03T14:22:47.502Z,0.20
2023-05-03T14:25:14.869Z,0.22
2023-05-03T14:27:42.846Z,0.20
2023-05-03T14:30:10.849Z,0.20
2023-05-03T14:32:38.179Z,0.20
2023-05-03T14:35:05.664Z,0.20
2023-05-03T14:37:33.729Z,0.20
2023-05-03T14:40:01.632Z,0.20
2023-05-03T14:42:32.223Z,0.20
2023-05-03T14:44:59.819Z,0.30
2023-05-03T14:47:27.201Z,0.20
2023-05-03T14:49:54.652Z,0.30
2023-05-03T14:52:22.026Z,0.20
2023-05-03T14:54:49.286Z,0.30
2023-05-03T14:57:16.664Z,0.30
2023-05-03T14:59:43.991Z,0.20
2023-05-03T15:02:11.441Z,0.20
2023-05-03T15:04:39.120Z,0.20
2023-05-03T15:07:09.816Z,0.30
2023-05-03T15:09:38.211Z,0.20
2023-05-03T15:12:05.661Z,0.20
2023-05-03T15:14:32.951Z,0.20
2023-05-03T15:17:00.244Z,0.20
2023-05-03T15:19:28.449Z,0.20
2023-05-03T15:21:56.029Z,0.20
2023-05-03T15:24:23.472Z,0.20
2023-05-03T15:26:51.653Z,0.20
2023-05-03T15:29:18.944Z,0.20
2023-05-03T15:31:46.914Z,0.30
2023-05-03T15:34:14.389Z,0.20
2023-05-03T15:36:41.725Z,0.20
2023-05-03T15:39:09.521Z,0.30
2023-05-03T15:41:36.944Z,0.30
2023-05-03T15:44:05.565Z,0.20
2023-05-03T15:46:33.089Z,0.20
2023-05-03T15:49:01.201Z,0.30
2023-05-03T15:51:29.425Z,0.30
2023-05-03T15:53:56.856Z,0.30
2023-05-03T15:56:24.230Z,0.30
2023-05-03T15:58:51.686Z,0.20
2023-05-03T16:01:19.036Z,0.20
2023-05-03T16:03:46.451Z,0.20
2023-05-03T16:06:14.100Z,0.20
2023-05-03T16:08:42.160Z,0.30
2023-05-03T16:11:09.568Z,0.20
2023-05-03T16:13:36.950Z,0.20
2023-05-03T16:16:04.345Z,0.20
2023-05-03T16:20:59.379Z,0.30
2023-05-03T16:23:26.925Z,0.20
2023-05-03T16:25:54.316Z,0.20
2023-05-03T16:28:22.922Z,0.30
2023-05-03T16:30:50.450Z,0.20
2023-05-03T16:33:18.328Z,0.20
2023-05-03T16:35:46.000Z,0.20
2023-05-03T16:38:13.375Z,0.30
2023-05-03T16:40:40.941Z,0.30
2023-05-03T16:43:08.638Z,0.30
2023-05-03T16:45:36.092Z,0.30
2023-05-03T16:48:05.583Z,0.20
2023-05-03T16:50:34.740Z,0.20
2023-05-03T16:53:02.764Z,0.20
2023-05-03T16:55:30.214Z,0.20
2023-05-03T16:57:57.632Z,0.30
2023-05-03T17:00:25.017Z,0.20
2023-05-03T17:02:52.922Z,0.20
2023-05-03T17:05:20.527Z,0.20
2023-05-03T17:07:47.864Z,0.30
2023-05-03T17:10:15.903Z,0.30
2023-05-03T17:12:43.293Z,0.30
2023-05-03T17:15:10.955Z,0.30
2023-05-03T17:17:38.332Z,0.20
2023-05-03T17:20:07.908Z,0.23
2023-05-03T17:22:36.189Z,0.20
2023-05-03T17:25:03.971Z,0.30
2023-05-03T17:27:31.370Z,0.20
2023-05-03T17:29:59.469Z,0.30
2023-05-03T17:32:27.341Z,0.20
2023-05-03T17:34:54.668Z,0.30
2023-05-03T17:37:23.909Z,0.20
2023-05-03T17:39:51.236Z,0.30
2023-05-03T17:42:18.532Z,0.20
2023-05-03T17:44:46.030Z,0.30
2023-05-03T17:47:13.829Z,0.20
2023-05-03T17:49:41.174Z,0.30
2023-05-03T17:52:08.540Z,0.30
2023-05-03T17:54:35.926Z,0.20
2023-05-03T17:57:03.476Z,0.20
2023-05-03T17:59:30.903Z,0.30
2023-05-03T18:01:58.287Z,0.20
2023-05-03T18:04:27.054Z,0.30
2023-05-03T18:06:54.422Z,0.20
2023-05-03T18:09:22.237Z,0.30
2023-05-03T18:11:50.784Z,0.30
2023-05-03T18:14:18.112Z,0.20
2023-05-03T18:16:45.685Z,0.30
2023-05-03T18:19:13.937Z,0.30
2023-05-03T18:21:41.318Z,0.30
2023-05-03T18:24:09.536Z,0.20
2023-05-03T18:26:36.904Z,0.30
2023-05-03T18:29:04.809Z,0.30
2023-05-03T18:31:32.372Z,0.20
2023-05-03T18:33:59.770Z,0.20
2023-05-03T18:36:27.520Z,0.20
2023-05-03T18:38:54.973Z,0.20
2023-05-03T18:41:23.129Z,0.20
2023-05-03T18:43:52.117Z,0.20
2023-05-03T18:46:19.980Z,0.20
2023-05-03T18:48:48.169Z,0.20
2023-05-03T18:51:15.687Z,0.27
2023-05-03T18:53:43.763Z,0.20
2023-05-03T18:56:11.084Z,0.20
2023-05-03T18:58:38.615Z,0.30
2023-05-03T19:01:06.639Z,0.30
2023-05-03T19:03:34.246Z,0.30
2023-05-03T19:06:05.629Z,0.50
2023-05-03T19:08:32.972Z,0.43
2023-05-03T19:11:14.331Z,0.20
2023-05-03T19:13:45.642Z,0.40
2023-05-03T19:16:13.364Z,0.20
2023-05-03T19:18:42.047Z,0.50
2023-05-03T19:21:10.037Z,0.60
2023-05-03T19:23:37.285Z,0.30
2023-05-03T19:26:04.773Z,0.20
2023-05-03T19:28:32.127Z,0.20
2023-05-03T19:31:02.289Z,0.20
2023-05-03T19:33:29.676Z,0.20
2023-05-03T19:35:57.490Z,0.20
2023-05-03T19:38:24.840Z,0.20
2023-05-03T19:40:58.847Z,0.20
2023-05-03T19:43:26.360Z,0.20
2023-05-03T19:45:53.838Z,0.30
2023-05-03T19:48:21.308Z,0.20
2023-05-03T19:50:48.589Z,0.20
2023-05-03T19:53:16.283Z,0.20
2023-05-03T19:55:43.789Z,0.20
2023-05-03T19:58:11.409Z,0.30
2023-05-03T20:00:38.805Z,0.20
2023-05-03T20:03:06.205Z,0.20
2023-05-03T20:05:33.687Z,0.20
2023-05-03T20:08:00.956Z,0.50
2023-05-03T20:10:28.332Z,0.60
2023-05-03T20:12:55.717Z,0.50
2023-05-03T20:15:23.037Z,0.50
2023-05-03T20:17:50.423Z,0.40
2023-05-03T20:20:17.745Z,0.30
2023-05-03T20:22:45.817Z,0.60
2023-05-03T20:25:13.166Z,0.30
2023-05-03T20:27:40.490Z,0.30
2023-05-03T20:30:08.322Z,0.40
2023-05-03T20:32:41.778Z,0.60
2023-05-03T20:35:10.533Z,0.30
2023-05-03T20:37:40.873Z,0.20
2023-05-03T20:40:08.576Z,0.60
2023-05-03T20:42:35.943Z,0.50
2023-05-03T20:45:03.596Z,0.70
2023-05-03T20:47:31.074Z,0.50
2023-05-03T20:49:58.342Z,0.53
2023-05-03T20:52:25.728Z,0.40
2023-05-03T20:54:53.204Z,0.40
2023-05-03T20:57:20.792Z,0.60
2023-05-03T20:59:48.114Z,0.30
2023-05-03T21:02:15.473Z,0.30
2023-05-03T21:04:42.951Z,0.20
2023-05-03T21:07:10.387Z,0.20
2023-05-03T21:09:37.811Z,0.20
2023-05-03T21:12:05.390Z,0.20
2023-05-03T21:14:32.668Z,0.20
2023-05-03T21:17:01.506Z,0.20
2023-05-03T21:19:29.091Z,0.20
2023-05-03T21:21:56.423Z,0.20
2023-05-03T21:24:25.779Z,0.30
2023-05-03T21:26:53.243Z,0.20
2023-05-03T21:29:20.522Z,0.30
2023-05-03T21:31:47.945Z,0.20
2023-05-03T21:34:15.298Z,0.20
2023-05-03T21:36:42.785Z,0.20
2023-05-03T21:39:10.496Z,0.30
2023-05-03T21:41:37.994Z,0.30
2023-05-03T21:44:05.409Z,0.20
2023-05-03T21:46:33.374Z,0.20
2023-05-03T21:49:00.938Z,0.20
2023-05-03T21:51:28.366Z,0.30
2023-05-03T21:53:55.933Z,0.30
2023-05-03T21:56:23.208Z,0.20
2023-05-03T21:58:50.770Z,0.20
2023-05-03T22:01:20.300Z,0.20
2023-05-03T22:03:47.860Z,0.20
2023-05-03T22:06:15.275Z,0.30
2023-05-03T22:08:42.646Z,0.20
2023-05-03T22:11:10.032Z,0.30
2023-05-03T22:13:50.296Z,0.20
2023-05-03T22:16:25.639Z,0.20
2023-05-03T22:18:53.076Z,0.20
2023-05-03T22:21:20.407Z,0.30
2023-05-03T22:23:47.755Z,0.30
2023-05-03T22:26:15.031Z,0.20
2023-05-03T22:28:42.367Z,0.50
2023-05-03T22:31:09.710Z,0.50
2023-05-03T22:33:37.047Z,0.40
2023-05-03T22:36:04.510Z,0.50
2023-05-03T22:38:31.889Z,0.60
2023-05-03T22:40:59.262Z,0.50
2023-05-03T22:43:26.867Z,0.50
2023-05-03T22:45:54.318Z,0.50
2023-05-03T22:48:21.642Z,0.50
2023-05-03T22:50:48.942Z,0.40
2023-05-03T22:53:16.556Z,0.40
2023-05-03T22:55:44.296Z,0.50
2023-05-03T22:58:11.582Z,0.70
2023-05-03T23:00:38.911Z,0.60
2023-05-03T23:03:07.672Z,0.50
2023-05-03T23:05:35.420Z,0.60
2023-05-03T23:08:03.080Z,0.50
2023-05-03T23:10:30.362Z,0.50
2023-05-03T23:12:57.742Z,0.70
2023-05-03T23:15:25.314Z,0.60
2023-05-03T23:17:52.798Z,0.20
2023-05-03T23:20:20.315Z,0.20
2023-05-03T23:22:47.627Z,0.30
2023-05-03T23:25:16.315Z,0.60
2023-05-03T23:27:43.883Z,0.60
2023-05-03T23:30:12.016Z,0.70
2023-05-03T23:32:39.784Z,0.60
2023-05-03T23:35:07.716Z,0.50
2023-05-03T23:37:35.074Z,0.70
2023-05-03T23:40:02.566Z,0.60
2023-05-03T23:42:29.952Z,0.60
2023-05-03T23:44:57.337Z,0.60
2023-05-03T23:47:24.760Z,0.70
2023-05-03T23:49:52.203Z,0.50
2023-05-03T23:52:20.614Z,0.67
2023-05-03T23:54:48.225Z,0.83
2023-05-03T23:57:15.822Z,0.80
2023-05-03T23:59:43.354Z,0.73
